| time (UTC) | temp C | wind direction | speed KPH | gust KPH | rain 1hr cm | rain 24hr cm | rain mn cm | humidity % | barometer mb |
| 20260508044600 | 10 | 360 | 0.0 | 0.0 | 0.00 | 1.30 | 0.00 | 22 | 1013.4 |
| 20260508043104 | 10 | 360 | 0.0 | 0.0 | 0.00 | 1.30 | 0.00 | 22 | 1013.2 |
| 20260508041601 | 10 | 360 | 0.0 | 0.0 | 0.00 | 1.30 | 0.00 | 21 | 1013.1 |
| 20260508040053 | 10 | 360 | 0.0 | 0.0 | 0.00 | 1.30 | 0.00 | 20 | 1012.9 |
| 20260508034549 | 10 | 360 | 0.0 | 0.0 | 0.00 | 1.35 | 1.30 | 20 | 1012.9 |
| 20260508033044 | 10 | 360 | 0.0 | 0.0 | 0.00 | 1.35 | 1.30 | 20 | 1012.6 |
| 20260508031541 | 11 | 360 | 0.0 | 0.0 | 0.00 | 1.35 | 1.30 | 20 | 1012.8 |
| 20260508030041 | 11 | 360 | 0.0 | 0.0 | 0.00 | 1.35 | 1.30 | 20 | 1012.8 |
| 20260508024531 | 11 | 360 | 0.0 | 0.0 | 0.00 | 1.35 | 1.30 | 20 | 1012.3 |
| 20260508023027 | 11 | 360 | 0.0 | 0.0 | 0.00 | 1.35 | 1.30 | 21 | 1012.3 |
| 20260508021522 | 11 | 360 | 0.0 | 0.0 | 0.00 | 1.35 | 1.30 | 21 | 1012.1 |
| 20260508020027 | 11 | 360 | 0.0 | 0.0 | 0.00 | 1.35 | 1.30 | 20 | 1012.1 |
| 20260508014514 | 11 | 360 | 0.0 | 0.0 | 0.00 | 1.35 | 1.30 | 19 | 1011.8 |
| 20260508013009 | 11 | 360 | 0.0 | 0.0 | 0.00 | 1.35 | 1.30 | 18 | 1011.3 |
| 20260508011504 | 11 | 360 | 0.0 | 0.0 | 0.00 | 1.35 | 1.30 | 17 | 1011.2 |
| 20260508010000 | 11 | 360 | 0.0 | 0.0 | 0.00 | 1.35 | 1.30 | 17 | 1011.3 |
| 20260508004556 | 11 | 360 | 0.0 | 0.0 | 0.00 | 1.35 | 1.30 | 17 | 1011.1 |
| 20260508003052 | 11 | 360 | 0.0 | 0.0 | 0.00 | 1.35 | 1.30 | 18 | 1011.1 |
| 20260508001610 | 11 | 360 | 0.0 | 0.0 | 0.00 | 1.35 | 1.30 | 18 | 1010.8 |
| 20260508000047 | 11 | 360 | 0.0 | 0.0 | 0.00 | 1.35 | 1.30 | 18 | 1010.7 |
| 20260507234539 | 11 | 360 | 0.0 | 0.0 | 0.00 | 1.35 | 1.30 | 17 | 1010.6 |
| 20260507233034 | 11 | 360 | 0.0 | 0.0 | 0.00 | 1.35 | 1.30 | 17 | 1010.3 |
| 20260507231536 | 12 | 360 | 0.0 | 0.0 | 0.00 | 1.35 | 1.30 | 17 | 1010.0 |
| 20260507230027 | 12 | 360 | 0.0 | 0.0 | 0.00 | 1.35 | 1.30 | 17 | 1010.0 |
| 20260507224531 | 12 | 360 | 0.0 | 0.0 | 0.00 | 1.35 | 1.30 | 16 | 1009.8 |
| 20260507223017 | 12 | 360 | 0.0 | 0.0 | 0.00 | 1.35 | 1.30 | 16 | 1009.4 |
| 20260507221513 | 12 | 360 | 0.0 | 0.0 | 0.00 | 1.35 | 1.30 | 16 | 1009.4 |
| 20260507220016 | 12 | 360 | 0.0 | 0.0 | 0.00 | 1.35 | 1.30 | 15 | 1009.7 |
| 20260507214503 | 12 | 360 | 0.0 | 0.0 | 0.00 | 1.35 | 1.30 | 15 | 1009.6 |
| 20260507213059 | 12 | 360 | 0.0 | 0.0 | 0.00 | 1.35 | 1.30 | 15 | 1009.5 |
| 20260507211555 | 12 | 360 | 0.0 | 0.0 | 0.00 | 1.35 | 1.30 | 16 | 1009.7 |
| 20260507210052 | 12 | 360 | 0.0 | 0.0 | 0.00 | 1.35 | 1.30 | 17 | 1009.2 |
| 20260507204552 | 12 | 360 | 0.0 | 0.0 | 0.00 | 1.35 | 1.30 | 18 | 1009.3 |
| 20260507203041 | 12 | 360 | 0.0 | 0.0 | 0.00 | 1.35 | 1.30 | 18 | 1009.1 |
| 20260507201542 | 12 | 360 | 0.0 | 0.0 | 0.00 | 1.35 | 1.30 | 17 | 1009.3 |
| 20260507200033 | 12 | 360 | 0.0 | 0.0 | 0.05 | 1.35 | 1.30 | 15 | 1009.1 |
| 20260507194528 | 12 | 360 | 0.0 | 0.0 | 0.08 | 1.35 | 1.30 | 14 | 1009.2 |
| 20260507193025 | 13 | 360 | 0.0 | 0.0 | 0.15 | 1.35 | 1.30 | 14 | 1009.2 |
| 20260507191520 | 13 | 360 | 0.0 | 0.0 | 0.25 | 1.35 | 1.30 | 14 | 1009.3 |
| 20260507190017 | 13 | 360 | 0.0 | 0.0 | 0.28 | 1.30 | 1.24 | 15 | 1009.2 |
| 20260507184511 | 13 | 360 | 0.0 | 0.0 | 0.25 | 1.27 | 1.22 | 16 | 1009.0 |
| 20260507183006 | 13 | 360 | 0.0 | 0.0 | 0.18 | 1.19 | 1.14 | 18 | 1009.3 |
| 20260507181501 | 13 | 360 | 0.0 | 0.0 | 0.08 | 1.09 | 1.04 | 19 | 1009.2 |
| 20260507180058 | 13 | 360 | 0.0 | 0.0 | 0.00 | 1.02 | 0.97 | 22 | 1009.2 |
| 20260507174557 | 13 | 360 | 0.0 | 0.0 | 0.03 | 1.04 | 0.97 | 24 | 1009.0 |
| 20260507173049 | 13 | 360 | 0.0 | 0.0 | 0.03 | 1.04 | 0.97 | 26 | 1009.5 |
| 20260507171545 | 13 | 360 | 0.0 | 0.0 | 0.05 | 1.04 | 0.97 | 28 | 1008.8 |
| 20260507170046 | 14 | 360 | 0.0 | 0.0 | 0.08 | 1.04 | 0.97 | 30 | 1008.6 |
| 20260507164535 | 15 | 360 | 0.0 | 0.0 | 0.08 | 1.02 | 0.94 | 30 | 1008.5 |
| 20260507163031 | 16 | 360 | 0.0 | 0.0 | 0.08 | 1.02 | 0.94 | 14 | 1008.6 |
| 20260507161528 | 17 | 360 | 0.0 | 0.0 | 0.08 | 0.99 | 0.91 | 1 | 1008.7 |
| 20260507160026 | 17 | 360 | 0.0 | 0.0 | 0.13 | 0.97 | 0.89 | 100 | 1009.2 |
| 20260507154518 | 17 | 360 | 0.0 | 0.0 | 0.13 | 0.94 | 0.86 | 100 | 1009.3 |
| 20260507153018 | 17 | 360 | 0.0 | 0.0 | 0.15 | 0.94 | 0.86 | 100 | 1008.7 |
| 20260507151510 | 17 | 360 | 0.0 | 0.0 | 0.13 | 0.89 | 0.81 | 100 | 1008.6 |
| 20260507150007 | 17 | 360 | 0.0 | 0.0 | 0.10 | 0.84 | 0.76 | 100 | 1009.0 |
| 20260507144502 | 17 | 360 | 0.0 | 0.0 | 0.10 | 0.81 | 0.71 | 100 | 1008.8 |
| 20260507143056 | 17 | 360 | 0.0 | 0.0 | 0.10 | 0.79 | 0.71 | 100 | 1008.7 |
| 20260507141554 | 17 | 360 | 0.0 | 0.0 | 0.13 | 0.76 | 0.69 | 100 | 1008.5 |
| 20260507140051 | 17 | 360 | 0.0 | 0.0 | 0.13 | 0.71 | 0.66 | 1008.9 | |
| 20260507134544 | 17 | 360 | 0.0 | 0.0 | 0.15 | 0.71 | 0.64 | 100 | 1009.2 |
| 20260507133038 | 17 | 360 | 0.0 | 0.0 | 0.13 | 0.66 | 0.58 | 100 | 1009.6 |
| 20260507131551 | 17 | 360 | 0.0 | 0.0 | 0.10 | 0.64 | 0.56 | 2 | 1009.7 |
| 20260507130030 | 17 | 360 | 0.0 | 0.0 | 0.08 | 0.61 | 0.53 | 2 | 1009.3 |
| 20260507124525 | 17 | 360 | 0.0 | 0.0 | 0.03 | 0.56 | 0.48 | 3 | 1009.2 |
| 20260507123021 | 17 | 360 | 0.0 | 0.0 | 0.00 | 0.53 | 0.46 | 3 | 1009.4 |
| 20260507121517 | 17 | 360 | 0.0 | 0.0 | 0.00 | 0.53 | 0.46 | 4 | 1009.3 |
| 20260507120024 | 17 | 360 | 0.0 | 0.0 | 0.10 | 0.53 | 0.46 | 4 | 1009.2 |
| 20260507114508 | 17 | 360 | 0.0 | 0.0 | 0.13 | 0.53 | 0.46 | 5 | 1009.4 |
| 20260507113005 | 17 | 360 | 0.0 | 0.0 | 0.15 | 0.53 | 0.46 | 5 | 1009.8 |
| 20260507111607 | 17 | 360 | 0.0 | 0.0 | 0.15 | 0.53 | 0.46 | 6 | 1009.6 |
| 20260507104551 | 17 | 360 | 0.0 | 0.0 | 0.10 | 0.41 | 0.33 | 6 | 1009.4 |
| 20260507103046 | 17 | 360 | 0.0 | 0.0 | 0.08 | 0.38 | 0.30 | 7 | 1009.2 |
| 20260507101542 | 17 | 360 | 0.0 | 0.0 | 0.08 | 0.38 | 0.30 | 7 | 1009.5 |
| 20260507100042 | 17 | 360 | 0.0 | 0.0 | 0.05 | 0.33 | 0.25 | 8 | 1009.2 |
| 20260507094540 | 17 | 360 | 0.0 | 0.0 | 0.03 | 0.30 | 0.23 | 8 | 1009.4 |
| 20260507093043 | 17 | 360 | 0.0 | 0.0 | 0.05 | 0.30 | 0.23 | 8 | 1009.4 |
| 20260507091538 | 17 | 360 | 0.0 | 0.0 | 0.05 | 0.30 | 0.23 | 9 | 1009.1 |
| 20260507090038 | 17 | 360 | 0.0 | 0.0 | 0.03 | 0.28 | 0.20 | 10 | 1009.2 |
| 20260507084533 | 17 | 360 | 0.0 | 0.0 | 0.05 | 0.28 | 0.20 | 10 | 1009.6 |
| 20260507083032 | 17 | 360 | 0.0 | 0.0 | 0.03 | 0.25 | 0.18 | 10 | 1009.7 |
| 20260507081541 | 17 | 360 | 0.0 | 0.0 | 0.03 | 0.25 | 0.18 | 11 | 1009.7 |
| 20260507080030 | 17 | 360 | 0.0 | 0.0 | 0.03 | 0.25 | 0.18 | 11 | 1009.7 |
| 20260507074546 | 17 | 360 | 0.0 | 0.0 | 0.00 | 0.23 | 0.15 | 12 | 1009.9 |
| 20260507073028 | 17 | 360 | 0.0 | 0.0 | 0.03 | 0.23 | 0.15 | 12 | 1009.8 |
| 20260507071526 | 17 | 360 | 0.0 | 0.0 | 0.03 | 0.23 | 0.15 | 13 | 1010.1 |
| 20260507070024 | 17 | 360 | 0.0 | 0.0 | 0.03 | 0.23 | 0.15 | 13 | 1010.0 |
| 20260507064521 | 17 | 360 | 0.0 | 0.0 | 0.03 | 0.23 | 0.15 | 14 | 1010.2 |
| 20260507063025 | 17 | 360 | 0.0 | 0.0 | 0.00 | 0.20 | 0.13 | 15 | 1011.2 |
| 20260507061519 | 17 | 360 | 0.0 | 0.0 | 0.00 | 0.20 | 0.13 | 16 | 1011.0 |
| 20260507060018 | 17 | 360 | 0.0 | 0.0 | 0.00 | 0.20 | 0.13 | 19 | 1010.7 |
| 20260507054519 | 17 | 360 | 0.0 | 0.0 | 0.00 | 0.20 | 0.13 | 20 | 1010.8 |
| 20260507053015 | 18 | 360 | 0.0 | 0.0 | 0.03 | 0.20 | 0.13 | 21 | 1010.7 |
| 20260507051514 | 18 | 360 | 0.0 | 0.0 | 0.10 | 0.20 | 0.13 | 23 | 1011.1 |
| 20260507050024 | 18 | 360 | 0.0 | 0.0 | 0.13 | 0.20 | 0.13 | 25 | 1011.1 |